createdAt,value
2018-03-14T08:38:49.047Z,2.90
2018-03-14T08:39:38.120Z,7.07
2018-03-14T08:40:27.172Z,7.47
2018-03-14T08:41:16.233Z,8.88
2018-03-14T08:42:05.287Z,13.77
2018-03-14T08:42:54.330Z,8.95
2018-03-14T08:43:43.371Z,4.57
2018-03-14T08:44:32.455Z,11.70
2018-03-14T08:45:21.541Z,9.63
2018-03-14T08:46:10.660Z,6.78
2018-03-14T08:46:59.721Z,18.13
2018-03-14T08:47:48.758Z,4.93
2018-03-14T08:48:38.119Z,3.20
2018-03-14T08:49:27.197Z,6.12
2018-03-14T08:50:16.335Z,7.12
2018-03-14T08:51:05.404Z,7.60
2018-03-14T08:51:54.442Z,4.18
2018-03-14T08:52:43.476Z,4.03
2018-03-14T08:53:32.529Z,4.50
2018-03-14T08:54:21.595Z,3.45
2018-03-14T08:55:10.698Z,5.60
2018-03-14T08:55:59.818Z,6.10
2018-03-14T08:56:48.854Z,8.27
2018-03-14T08:57:37.892Z,13.62
2018-03-14T08:58:27.222Z,37.45
2018-03-14T08:59:16.262Z,10.73
2018-03-14T09:00:05.317Z,13.88
2018-03-14T09:00:54.366Z,13.00
2018-03-14T09:01:43.406Z,34.80
2018-03-14T09:02:32.451Z,8.25
2018-03-14T09:03:21.496Z,22.45
2018-03-14T09:04:10.602Z,30.75
2018-03-14T09:04:59.655Z,12.25
2018-03-14T09:05:48.697Z,12.20
2018-03-14T09:06:37.748Z,12.90
2018-03-14T09:07:26.845Z,26.42
2018-03-14T09:08:15.893Z,20.08
2018-03-14T09:09:05.048Z,11.25
2018-03-14T09:09:54.109Z,8.07
2018-03-14T09:10:43.155Z,6.18
2018-03-14T09:11:32.204Z,5.20
2018-03-14T09:12:21.239Z,2.47
2018-03-14T09:13:10.269Z,3.25
2018-03-14T09:13:59.414Z,6.82
2018-03-14T09:14:48.456Z,4.78
2018-03-14T09:15:37.636Z,7.60
2018-03-14T09:16:26.674Z,3.70
2018-03-14T09:17:15.709Z,3.65
2018-03-14T09:18:05.081Z,5.28
2018-03-14T09:18:54.148Z,24.50
2018-03-14T09:19:43.188Z,6.60
2018-03-14T09:20:32.224Z,12.07
2018-03-14T09:21:21.271Z,8.52
2018-03-14T09:22:10.491Z,3.80
2018-03-14T09:22:59.532Z,4.05
2018-03-14T09:23:48.631Z,3.22
2018-03-14T09:24:37.685Z,8.23
2018-03-14T09:25:26.719Z,10.07
2018-03-14T09:26:15.775Z,16.02
2018-03-14T09:27:04.811Z,3.97
2018-03-14T09:27:53.881Z,2.58
2018-03-14T09:28:42.901Z,4.35
2018-03-14T09:29:31.923Z,4.37
2018-03-14T09:30:20.957Z,12.77
2018-03-14T09:31:10.160Z,6.97
2018-03-14T09:31:59.190Z,5.50
2018-03-14T09:32:48.223Z,3.15
2018-03-14T09:33:37.329Z,20.08
2018-03-14T09:34:26.427Z,8.23
2018-03-14T09:35:15.483Z,9.68
2018-03-14T09:36:04.531Z,8.38
2018-03-14T09:36:53.584Z,4.37
2018-03-14T09:37:42.627Z,6.50
2018-03-14T09:38:31.718Z,7.90
2018-03-14T09:39:20.778Z,2.85
2018-03-14T09:40:09.824Z,6.60
2018-03-14T09:40:58.963Z,11.35
2018-03-14T09:41:48.007Z,7.82
2018-03-14T09:42:37.041Z,8.38
2018-03-14T09:43:26.079Z,5.47
2018-03-14T09:44:15.116Z,5.45
2018-03-14T09:45:04.189Z,3.12
2018-03-14T09:45:53.227Z,4.53
2018-03-14T09:46:42.320Z,4.82
2018-03-14T09:47:31.424Z,6.00
2018-03-14T09:48:20.460Z,8.88
2018-03-14T09:49:09.495Z,6.37
2018-03-14T09:49:58.530Z,12.90
2018-03-14T09:50:47.571Z,5.65
2018-03-14T09:51:36.608Z,3.87
2018-03-14T09:52:25.657Z,4.68
2018-03-14T09:53:14.728Z,5.05
2018-03-14T09:54:03.772Z,8.23
2018-03-14T09:54:52.806Z,6.07
2018-03-14T09:55:41.841Z,9.85
2018-03-14T09:56:30.891Z,9.00
2018-03-14T09:57:19.950Z,6.57
2018-03-14T09:58:08.988Z,8.60
2018-03-14T09:58:58.128Z,8.60
2018-03-14T09:59:47.164Z,9.10
2018-03-14T10:00:36.200Z,8.07
2018-03-14T10:01:25.246Z,10.23
2018-03-14T10:02:14.373Z,7.97
2018-03-14T10:03:03.439Z,10.88
2018-03-14T10:03:52.494Z,5.05
2018-03-14T10:04:41.553Z,8.48
2018-03-14T10:05:30.584Z,8.35
2018-03-14T10:06:19.626Z,6.30
2018-03-14T10:07:08.664Z,9.20
2018-03-14T10:07:57.853Z,9.90
2018-03-14T10:08:46.890Z,9.30
2018-03-14T10:09:35.989Z,4.82
2018-03-14T10:10:25.027Z,6.28
2018-03-14T10:11:14.079Z,22.87
2018-03-14T10:12:03.130Z,4.53
2018-03-14T10:12:52.192Z,6.53
2018-03-14T10:13:41.228Z,8.20
2018-03-14T10:14:30.267Z,10.18
2018-03-14T10:15:19.413Z,2.47
2018-03-14T10:16:08.493Z,8.05
2018-03-14T10:16:57.538Z,4.57
2018-03-14T10:17:46.577Z,4.12
2018-03-14T10:18:35.630Z,2.50
2018-03-14T10:19:24.775Z,2.15
2018-03-14T10:20:13.821Z,3.00
2018-03-14T10:21:02.875Z,2.85
2018-03-14T10:21:51.928Z,7.80
2018-03-14T10:22:41.006Z,12.35
2018-03-14T10:23:30.062Z,19.45
2018-03-14T10:24:19.106Z,4.15
2018-03-14T10:25:08.177Z,5.45
2018-03-14T10:25:57.246Z,6.07
2018-03-14T10:26:46.294Z,6.93
2018-03-14T10:27:35.343Z,4.97
2018-03-14T10:28:24.378Z,9.93
2018-03-14T10:29:13.759Z,5.28
2018-03-14T10:30:02.802Z,4.35
2018-03-14T10:30:51.870Z,3.75
2018-03-14T10:31:40.905Z,4.65
2018-03-14T10:32:29.950Z,8.15
2018-03-14T10:33:18.996Z,6.03
2018-03-14T10:34:08.115Z,9.60
2018-03-14T10:34:57.153Z,2.65
2018-03-14T10:35:46.182Z,6.55
2018-03-14T10:36:35.327Z,3.60
2018-03-14T10:37:24.364Z,6.15
2018-03-14T10:38:13.420Z,5.57
2018-03-14T10:39:02.481Z,6.62
2018-03-14T10:39:51.541Z,6.10
2018-03-14T10:40:40.584Z,3.78
2018-03-14T10:41:29.609Z,4.10
2018-03-14T10:42:18.896Z,4.90
2018-03-14T10:43:07.932Z,4.05
2018-03-14T10:43:56.981Z,19.55
2018-03-14T10:44:46.041Z,8.15
2018-03-14T10:45:35.077Z,6.10
2018-03-14T10:46:24.112Z,4.70
2018-03-14T10:47:13.156Z,3.00
2018-03-14T10:48:02.230Z,3.70
2018-03-14T10:48:51.277Z,7.95
2018-03-14T10:49:40.303Z,4.70
2018-03-14T10:50:29.378Z,4.72
2018-03-14T10:51:18.414Z,6.05
2018-03-14T10:52:07.447Z,6.40
2018-03-14T10:52:56.488Z,2.05
2018-03-14T10:53:45.640Z,2.92
2018-03-14T10:54:34.678Z,5.12
2018-03-14T10:55:23.725Z,4.32
2018-03-14T10:56:12.773Z,5.07
2018-03-14T10:57:01.810Z,4.68
2018-03-14T10:57:50.989Z,13.25
2018-03-14T10:58:40.033Z,4.12
2018-03-14T10:59:29.076Z,11.40
2018-03-14T11:00:23.517Z,4.78
2018-03-14T11:01:12.593Z,4.85
2018-03-14T11:02:07.004Z,5.30
2018-03-14T11:03:01.474Z,10.40
2018-03-14T11:03:50.528Z,18.73
2018-03-14T11:04:39.586Z,6.57
2018-03-14T11:05:28.634Z,11.43
2018-03-14T11:06:17.685Z,7.72
2018-03-14T11:07:06.725Z,10.25
2018-03-14T11:07:58.360Z,7.30
2018-03-14T11:08:47.412Z,17.15
2018-03-14T11:09:36.574Z,10.55
2018-03-14T11:10:25.776Z,11.73
2018-03-14T11:11:14.817Z,7.93
2018-03-14T11:12:03.889Z,17.40
2018-03-14T11:12:53.199Z,33.20
2018-03-14T11:13:42.262Z,48.83
2018-03-14T11:14:31.322Z,23.12
2018-03-14T11:15:20.380Z,26.02
2018-03-14T11:16:09.480Z,13.75
2018-03-14T11:16:58.515Z,18.65
2018-03-14T11:17:47.572Z,21.75
2018-03-14T11:18:36.619Z,18.10
2018-03-14T11:19:25.678Z,10.75
2018-03-14T11:20:14.822Z,16.08
2018-03-14T11:21:03.882Z,17.02
2018-03-14T11:21:52.934Z,24.90
2018-03-14T11:22:41.984Z,27.50
2018-03-14T11:23:31.036Z,4.43
2018-03-14T11:24:20.070Z,14.52
2018-03-14T11:25:09.171Z,10.65
2018-03-14T11:25:58.329Z,9.63
2018-03-14T11:26:47.366Z,14.98
2018-03-14T11:27:36.428Z,22.90
2018-03-14T11:28:25.474Z,15.18
2018-03-14T11:29:14.521Z,14.73
2018-03-14T11:30:03.819Z,11.65
2018-03-14T11:30:52.863Z,19.35
2018-03-14T11:31:41.911Z,17.55
2018-03-14T11:32:31.166Z,13.38
2018-03-14T11:33:20.202Z,7.65
2018-03-14T11:34:09.247Z,11.43
2018-03-14T11:34:58.301Z,14.50
2018-03-14T11:35:47.525Z,9.70
2018-03-14T11:36:36.568Z,7.55
2018-03-14T11:37:25.614Z,5.85
2018-03-14T11:38:14.673Z,9.18
2018-03-14T11:39:03.770Z,8.07
2018-03-14T11:39:52.816Z,11.73
2018-03-14T11:40:41.859Z,7.85
2018-03-14T11:41:30.977Z,15.10
2018-03-14T11:42:20.068Z,8.00
2018-03-14T11:43:09.108Z,5.75
2018-03-14T11:43:58.180Z,11.75
2018-03-14T11:44:47.220Z,15.45
2018-03-14T11:45:36.269Z,13.62
2018-03-14T11:46:25.325Z,11.40
2018-03-14T11:47:14.838Z,11.23
2018-03-14T11:48:03.921Z,11.15
2018-03-14T11:48:52.982Z,11.77
2018-03-14T11:49:42.062Z,7.37
2018-03-14T11:50:31.098Z,6.55
2018-03-14T11:51:20.145Z,8.60
2018-03-14T11:52:09.209Z,13.00
2018-03-14T11:52:58.256Z,10.60
2018-03-14T11:53:47.315Z,12.80
2018-03-14T11:54:36.362Z,8.93
2018-03-14T11:55:25.453Z,12.13
2018-03-14T11:56:14.489Z,5.37
2018-03-14T11:57:03.535Z,8.20
2018-03-14T11:57:52.600Z,5.93
2018-03-14T11:58:41.636Z,7.80
2018-03-14T11:59:30.725Z,14.65
2018-03-14T12:00:19.797Z,8.85
2018-03-14T12:01:08.846Z,14.65
2018-03-14T12:01:57.886Z,8.27
2018-03-14T12:02:47.024Z,9.88
2018-03-14T12:03:36.095Z,11.40
2018-03-14T12:04:25.140Z,10.23
2018-03-14T12:05:14.187Z,8.68
2018-03-14T12:06:03.240Z,15.30
2018-03-14T12:06:52.287Z,9.18
2018-03-14T12:07:41.331Z,7.32
2018-03-14T12:08:30.663Z,14.35
2018-03-14T12:09:19.724Z,14.20
2018-03-14T12:10:08.791Z,12.43
2018-03-14T12:10:57.989Z,12.63
2018-03-14T12:11:47.035Z,13.07
2018-03-14T12:12:36.067Z,9.90
2018-03-14T12:13:25.121Z,17.00
2018-03-14T12:14:14.192Z,7.45
2018-03-14T12:15:03.231Z,14.02
2018-03-14T12:15:52.274Z,19.33
2018-03-14T12:16:41.356Z,16.05
2018-03-14T12:17:30.403Z,13.45
2018-03-14T12:18:19.466Z,11.50
2018-03-14T12:19:08.521Z,15.68
2018-03-14T12:19:57.565Z,13.32
2018-03-14T12:20:46.604Z,10.27
2018-03-14T12:21:35.652Z,12.60
2018-03-14T12:22:30.334Z,15.98
2018-03-14T12:23:19.399Z,8.85
2018-03-14T12:24:08.488Z,10.23
2018-03-14T12:24:57.535Z,14.77
2018-03-14T12:25:46.580Z,14.15
2018-03-14T12:26:35.738Z,12.35
2018-03-14T12:27:24.828Z,10.45
2018-03-14T12:28:13.876Z,10.40
2018-03-14T12:29:02.932Z,13.68
2018-03-14T12:29:51.985Z,4.47
2018-03-14T12:30:41.025Z,4.22
2018-03-14T12:31:30.075Z,4.28
2018-03-14T12:32:19.175Z,7.32
2018-03-14T12:33:08.237Z,10.50
2018-03-14T12:33:57.297Z,5.28
2018-03-14T12:34:46.360Z,11.25
2018-03-14T12:35:35.409Z,7.40
2018-03-14T12:36:24.457Z,6.60
2018-03-14T12:37:13.498Z,7.37
2018-03-14T12:38:02.660Z,6.55
2018-03-14T12:38:51.703Z,2.95
2018-03-14T12:39:40.736Z,3.47
2018-03-14T12:40:29.849Z,7.87
2018-03-14T12:41:18.889Z,7.15
2018-03-14T12:42:07.990Z,8.80
2018-03-14T12:42:57.053Z,2.62
2018-03-14T12:43:46.128Z,6.28
2018-03-14T12:44:35.161Z,8.75
2018-03-14T12:45:24.203Z,8.55
2018-03-14T12:46:13.289Z,6.60
2018-03-14T12:47:02.328Z,8.43
2018-03-14T12:47:51.438Z,8.35
2018-03-14T12:48:40.471Z,5.60
2018-03-14T12:49:29.508Z,8.40
2018-03-14T12:50:18.554Z,9.73
2018-03-14T12:51:07.595Z,9.75
2018-03-14T12:51:56.636Z,7.90
2018-03-14T12:52:45.672Z,9.20
2018-03-14T12:53:34.821Z,10.50
2018-03-14T12:54:23.865Z,10.43
2018-03-14T12:55:12.910Z,8.93
2018-03-14T12:56:01.951Z,10.43
2018-03-14T12:56:50.988Z,10.85
2018-03-14T12:57:40.031Z,6.75
2018-03-14T12:58:29.073Z,6.60
2018-03-14T12:59:18.220Z,12.57
2018-03-14T13:00:07.308Z,14.68
2018-03-14T13:00:56.348Z,9.88
2018-03-14T13:01:45.383Z,6.40
2018-03-14T13:02:34.427Z,10.73
2018-03-14T13:03:23.548Z,8.07
2018-03-14T13:04:12.608Z,10.02
2018-03-14T13:05:01.643Z,9.32
2018-03-14T13:05:50.682Z,14.18
2018-03-14T13:06:39.763Z,13.48
2018-03-14T13:07:28.808Z,5.95
2018-03-14T13:08:17.854Z,8.45
2018-03-14T13:09:06.983Z,9.98
2018-03-14T13:09:56.264Z,7.25
2018-03-14T13:10:45.291Z,4.20
2018-03-14T13:11:34.348Z,8.10
2018-03-14T13:12:27.028Z,6.30
2018-03-14T13:13:16.073Z,10.55
2018-03-14T13:14:05.117Z,14.70
2018-03-14T13:14:54.288Z,7.53
2018-03-14T13:15:43.328Z,6.47
2018-03-14T13:16:32.366Z,7.28
2018-03-14T13:17:21.403Z,6.30
2018-03-14T13:18:10.486Z,7.97
2018-03-14T13:18:59.502Z,9.95
2018-03-14T13:19:48.540Z,12.93
2018-03-14T13:20:37.629Z,13.52
2018-03-14T13:21:26.690Z,11.43
2018-03-14T13:22:15.762Z,8.70
2018-03-14T13:23:04.805Z,5.85
2018-03-14T13:23:53.852Z,7.65
2018-03-14T13:24:42.898Z,9.55
2018-03-14T13:25:31.963Z,8.07
2018-03-14T13:26:21.086Z,7.70
2018-03-14T13:27:10.139Z,12.60
2018-03-14T13:27:59.175Z,7.40
2018-03-14T13:28:48.209Z,10.07
2018-03-14T13:29:37.261Z,13.85
2018-03-14T13:30:26.310Z,16.48
2018-03-14T13:31:15.360Z,10.02
2018-03-14T13:32:04.534Z,10.98
2018-03-14T13:32:53.627Z,13.15
2018-03-14T13:33:42.638Z,30.77
2018-03-14T13:34:31.688Z,28.00
2018-03-14T13:35:20.750Z,41.95
2018-03-14T13:36:09.802Z,38.80
2018-03-14T13:36:58.931Z,40.97
2018-03-14T13:37:47.984Z,46.50
2018-03-14T13:38:37.022Z,41.65
2018-03-14T13:39:26.083Z,28.35
2018-03-14T13:40:15.142Z,22.48
2018-03-14T13:41:04.198Z,35.05
2018-03-14T13:41:53.260Z,36.90
2018-03-14T13:42:42.370Z,41.78
2018-03-14T13:43:31.422Z,43.10
2018-03-14T13:44:20.541Z,39.25
2018-03-14T13:45:09.592Z,43.03
2018-03-14T13:45:58.651Z,36.05
2018-03-14T13:46:47.696Z,34.10
2018-03-14T13:47:36.860Z,30.15
2018-03-14T13:48:25.929Z,32.58
2018-03-14T13:49:14.988Z,28.58
2018-03-14T13:50:04.068Z,34.83
2018-03-14T13:50:53.129Z,36.58
2018-03-14T13:51:42.215Z,46.05
2018-03-14T13:52:31.263Z,40.60
2018-03-14T13:53:20.400Z,26.65
2018-03-14T13:54:09.480Z,26.55
2018-03-14T13:54:58.534Z,22.50
2018-03-14T13:55:47.590Z,16.73
2018-03-14T13:56:36.776Z,22.98
2018-03-14T13:57:25.828Z,20.37
2018-03-14T13:58:14.874Z,22.58
2018-03-14T13:59:03.934Z,14.90
2018-03-14T13:59:52.984Z,20.73
2018-03-14T14:00:42.056Z,27.30
2018-03-14T14:01:31.112Z,22.27
2018-03-14T14:02:20.211Z,15.77
2018-03-14T14:03:09.288Z,13.13
2018-03-14T14:03:58.343Z,11.35
2018-03-14T14:04:47.393Z,13.20
2018-03-14T14:05:36.464Z,17.62
2018-03-14T14:06:25.533Z,11.38
2018-03-14T14:07:14.596Z,15.25
2018-03-14T14:08:03.704Z,10.73
2018-03-14T14:08:52.752Z,20.52
2018-03-14T14:09:41.811Z,36.50
2018-03-14T14:10:30.883Z,40.90
2018-03-14T14:11:19.935Z,37.80
2018-03-14T14:12:09.011Z,14.77
2018-03-14T14:12:58.066Z,22.70
2018-03-14T14:13:47.640Z,23.20
2018-03-14T14:14:36.726Z,22.42
2018-03-14T14:15:25.787Z,25.30
2018-03-14T14:16:14.857Z,25.08
2018-03-14T14:17:03.924Z,20.08
2018-03-14T14:17:52.968Z,11.82
2018-03-14T14:18:42.023Z,15.98
2018-03-14T14:19:31.113Z,19.20
2018-03-14T14:20:20.812Z,12.98
2018-03-14T14:21:09.864Z,12.30
2018-03-14T14:21:58.949Z,15.68
2018-03-14T14:22:48.005Z,18.77
2018-03-14T14:23:37.071Z,11.00
2018-03-14T14:24:26.138Z,11.40
2018-03-14T14:25:15.229Z,14.18
2018-03-14T14:26:04.331Z,12.50
2018-03-14T14:26:53.405Z,14.35
2018-03-14T14:27:42.456Z,13.62
2018-03-14T14:28:31.511Z,12.77
2018-03-14T14:29:20.570Z,14.23
2018-03-14T14:30:09.626Z,15.15
2018-03-14T14:30:58.804Z,16.75
2018-03-14T14:31:47.881Z,15.00
2018-03-14T14:32:36.955Z,20.27
2018-03-14T14:33:26.041Z,16.33
2018-03-14T14:34:15.087Z,22.08
2018-03-14T14:35:04.173Z,11.25
2018-03-14T14:35:53.233Z,18.10
2018-03-14T14:36:42.396Z,11.25
2018-03-14T14:37:31.439Z,19.85
2018-03-14T14:38:20.524Z,18.35
2018-03-14T14:39:09.632Z,23.20
2018-03-14T14:39:58.687Z,12.88
2018-03-14T14:40:47.749Z,17.35
2018-03-14T14:41:36.883Z,12.13
2018-03-14T14:42:26.009Z,13.90
2018-03-14T14:43:15.058Z,13.80
2018-03-14T14:44:04.330Z,7.68
2018-03-14T14:44:53.372Z,13.30
2018-03-14T14:45:42.429Z,10.00
2018-03-14T14:46:31.496Z,8.63
2018-03-14T14:47:20.552Z,9.25
2018-03-14T14:48:09.595Z,10.27
2018-03-14T14:48:58.653Z,20.27
2018-03-14T14:49:47.756Z,15.75
2018-03-14T14:50:36.971Z,12.93
2018-03-14T14:51:26.024Z,11.52
2018-03-14T14:52:15.121Z,12.25
2018-03-14T14:53:04.217Z,18.60
2018-03-14T14:53:53.265Z,14.27
2018-03-14T14:54:42.321Z,14.32
2018-03-14T14:55:31.476Z,12.70
2018-03-14T14:56:20.521Z,12.23
2018-03-14T14:57:10.241Z,13.00
2018-03-14T14:57:59.296Z,10.75
2018-03-14T14:58:48.339Z,19.60
2018-03-14T14:59:37.398Z,22.25
2018-03-14T15:00:26.479Z,43.60
2018-03-14T15:01:15.544Z,25.27
2018-03-14T15:02:04.627Z,38.70
2018-03-14T15:02:53.716Z,184.87
2018-03-14T15:03:42.784Z,30.12
2018-03-14T15:04:31.890Z,47.42
2018-03-14T15:05:20.976Z,21.23
2018-03-14T15:06:10.089Z,65.50
2018-03-14T15:06:59.146Z,74.10
2018-03-14T15:07:48.193Z,28.87
2018-03-14T15:08:37.313Z,41.92
2018-03-14T15:09:26.359Z,29.10
2018-03-14T15:10:15.411Z,26.52
2018-03-14T15:11:04.462Z,30.67
2018-03-14T15:11:53.530Z,28.70
2018-03-14T15:12:42.710Z,45.30
2018-03-14T15:13:31.774Z,26.30
2018-03-14T15:14:20.836Z,29.60
2018-03-14T15:15:09.905Z,33.17
2018-03-14T15:15:58.953Z,43.42
2018-03-14T15:16:48.020Z,29.02
2018-03-14T15:17:37.207Z,30.73
2018-03-14T15:18:26.267Z,31.17
2018-03-14T15:19:15.321Z,27.25
2018-03-14T15:20:04.409Z,27.60
2018-03-14T15:20:53.482Z,23.33
2018-03-14T15:21:42.565Z,26.42
2018-03-14T15:22:31.607Z,31.33
2018-03-14T15:23:20.694Z,23.20
2018-03-14T15:24:09.753Z,30.20
2018-03-14T15:24:58.830Z,33.28
2018-03-14T15:25:47.888Z,31.70
2018-03-14T15:26:36.949Z,93.87
2018-03-14T15:27:26.007Z,66.47
2018-03-14T15:28:15.048Z,37.65
2018-03-14T15:29:04.206Z,52.15
2018-03-14T15:29:53.308Z,32.80
2018-03-14T15:30:42.395Z,42.62
2018-03-14T15:31:31.476Z,49.95
2018-03-14T15:32:20.807Z,50.22
2018-03-14T15:33:10.238Z,44.00
2018-03-14T15:33:59.305Z,48.53
2018-03-14T15:34:48.364Z,28.08
2018-03-14T15:35:37.426Z,47.58
2018-03-14T15:36:26.539Z,20.12
2018-03-14T15:37:15.600Z,60.95
2018-03-14T15:38:04.693Z,20.98
2018-03-14T15:38:53.813Z,23.77
2018-03-14T15:39:42.897Z,22.92
2018-03-14T15:40:31.958Z,28.38
2018-03-14T15:41:21.013Z,66.75
2018-03-14T15:42:10.101Z,37.03
2018-03-14T15:42:59.159Z,34.90
2018-03-14T15:43:48.216Z,35.22
2018-03-14T15:44:37.395Z,21.60
2018-03-14T15:45:26.646Z,20.65
2018-03-14T15:46:15.710Z,39.72
2018-03-14T15:47:04.788Z,50.67
2018-03-14T15:47:53.846Z,76.10
2018-03-14T15:48:42.952Z,65.60
2018-03-14T15:49:31.995Z,64.18
2018-03-14T15:50:24.322Z,54.53
2018-03-14T15:51:13.384Z,23.90
2018-03-14T15:52:02.437Z,19.92
2018-03-14T15:52:51.499Z,89.37
2018-03-14T15:53:40.636Z,68.53
2018-03-14T15:54:32.160Z,42.13
2018-03-14T15:55:21.245Z,70.47
2018-03-14T15:56:10.345Z,64.55
2018-03-14T15:56:59.428Z,54.22
2018-03-14T15:57:48.483Z,57.83
2018-03-14T15:58:37.545Z,56.53
2018-03-14T15:59:26.597Z,63.53
2018-03-14T16:00:15.659Z,51.30
2018-03-14T16:01:05.295Z,47.22
2018-03-14T16:01:54.424Z,49.20
2018-03-14T16:02:43.485Z,78.10
2018-03-14T16:03:32.538Z,51.92
2018-03-14T16:04:21.591Z,46.05
2018-03-14T16:05:10.704Z,31.70
2018-03-14T16:05:59.753Z,42.72
2018-03-14T16:06:48.830Z,59.83
2018-03-14T16:07:37.892Z,77.50
2018-03-14T16:08:26.964Z,65.00
2018-03-14T16:09:16.013Z,79.05
2018-03-14T16:10:05.169Z,61.37
2018-03-14T16:10:54.219Z,50.42
2018-03-14T16:11:43.270Z,45.08
2018-03-14T16:12:32.341Z,37.25
2018-03-14T16:13:21.389Z,33.40
2018-03-14T16:14:10.457Z,46.50
2018-03-14T16:14:59.540Z,36.80
2018-03-14T16:15:48.692Z,50.38
2018-03-14T16:16:37.759Z,41.05
2018-03-14T16:17:26.939Z,41.83
2018-03-14T16:18:16.029Z,40.70
2018-03-14T16:19:05.078Z,46.92
2018-03-14T16:19:54.130Z,58.08
2018-03-14T16:20:43.196Z,236.60
2018-03-14T16:21:32.261Z,53.85
2018-03-14T16:22:21.306Z,55.80
2018-03-14T16:23:10.381Z,131.27
2018-03-14T16:23:59.493Z,81.45
2018-03-14T16:24:48.572Z,77.78
2018-03-14T16:25:37.625Z,59.88
2018-03-14T16:26:26.676Z,46.92
2018-03-14T16:27:15.736Z,58.67
2018-03-14T16:28:04.838Z,47.03
2018-03-14T16:28:53.892Z,64.28
2018-03-14T16:29:42.937Z,51.95
2018-03-14T16:30:31.984Z,53.60
2018-03-14T16:31:21.035Z,57.62
2018-03-14T16:32:10.096Z,64.85
2018-03-14T16:32:59.134Z,42.25
2018-03-14T16:33:48.277Z,47.75
2018-03-14T16:34:37.330Z,50.00
2018-03-14T16:35:26.385Z,53.63
2018-03-14T16:36:15.450Z,44.55
2018-03-14T16:37:04.515Z,40.53
2018-03-14T16:37:53.560Z,45.25
2018-03-14T16:38:42.614Z,38.50
2018-03-14T16:39:31.700Z,42.22
2018-03-14T16:40:20.760Z,40.95
2018-03-14T16:41:09.808Z,28.98
2018-03-14T16:41:58.883Z,35.67
2018-03-14T16:42:47.921Z,50.88
2018-03-14T16:43:36.980Z,40.10
2018-03-14T16:44:26.050Z,43.05
2018-03-14T16:45:15.272Z,40.08
2018-03-14T16:46:04.336Z,44.88
2018-03-14T16:46:53.389Z,47.15
2018-03-14T16:47:42.434Z,57.45
2018-03-14T16:48:31.485Z,38.05
2018-03-14T16:49:20.533Z,48.90
2018-03-14T16:50:09.601Z,27.00
2018-03-14T16:50:59.130Z,39.03
2018-03-14T16:51:48.169Z,43.78
2018-03-14T16:52:37.213Z,34.22
2018-03-14T16:53:26.246Z,34.53
2018-03-14T16:54:15.313Z,33.53
2018-03-14T16:55:04.376Z,34.20
2018-03-14T16:55:53.431Z,40.38
2018-03-14T16:56:42.728Z,36.42
2018-03-14T16:57:34.428Z,39.83
2018-03-14T16:58:23.469Z,31.25
2018-03-14T16:59:12.554Z,34.13
2018-03-14T17:00:01.638Z,28.85
2018-03-14T17:00:50.718Z,36.53
2018-03-14T17:01:39.788Z,67.60
2018-03-14T17:02:28.832Z,51.20
2018-03-14T17:03:17.889Z,52.10
2018-03-14T17:04:06.972Z,54.17
2018-03-14T17:04:56.016Z,92.07
2018-03-14T17:05:45.096Z,51.20
2018-03-14T17:06:34.157Z,47.15
2018-03-14T17:07:23.213Z,92.03
2018-03-14T17:08:12.302Z,67.37
2018-03-14T17:09:01.352Z,58.72
2018-03-14T17:09:50.421Z,43.72
2018-03-14T17:10:39.476Z,177.45
2018-03-14T17:11:28.579Z,340.58
2018-03-14T17:12:17.957Z,81.45
2018-03-14T17:13:07.052Z,220.75
2018-03-14T17:13:56.157Z,202.02
2018-03-14T17:14:45.205Z,71.93
2018-03-14T17:15:34.287Z,83.07
2018-03-14T17:16:23.356Z,92.43
2018-03-14T17:17:12.573Z,88.05
2018-03-14T17:18:01.637Z,103.40
2018-03-14T17:18:50.704Z,90.82
2018-03-14T17:19:39.777Z,67.87
2018-03-14T17:20:28.833Z,151.32
2018-03-14T17:21:17.890Z,73.90
2018-03-14T17:22:06.973Z,74.68
2018-03-14T17:22:56.116Z,78.37
2018-03-14T17:23:45.202Z,69.35
2018-03-14T17:24:34.257Z,73.12
2018-03-14T17:25:23.319Z,100.15
2018-03-14T17:26:12.449Z,135.25
2018-03-14T17:27:01.498Z,126.72
2018-03-14T17:27:50.577Z,131.63
2018-03-14T17:28:40.134Z,124.45
2018-03-14T17:29:29.217Z,127.93
2018-03-14T17:30:18.286Z,143.50
2018-03-14T17:31:07.371Z,113.30
2018-03-14T17:31:56.510Z,134.55
2018-03-14T17:32:45.559Z,79.03
2018-03-14T17:33:34.632Z,115.15
2018-03-14T17:34:23.684Z,73.22
2018-03-14T17:35:12.734Z,68.32
2018-03-14T17:36:01.807Z,53.50
2018-03-14T17:36:50.853Z,33.78
2018-03-14T17:37:39.905Z,37.45
2018-03-14T17:38:29.023Z,45.70
2018-03-14T17:39:18.176Z,66.78
2018-03-14T17:40:07.233Z,60.15
2018-03-14T17:40:56.326Z,66.15
2018-03-14T17:41:45.380Z,67.50
2018-03-14T17:42:34.463Z,57.67
2018-03-14T17:43:23.587Z,55.88
2018-03-14T17:44:12.636Z,60.28
2018-03-14T17:45:01.698Z,72.85
2018-03-14T17:45:51.005Z,73.82
2018-03-14T17:46:40.039Z,80.72
2018-03-14T17:47:29.084Z,49.08
2018-03-14T17:48:18.142Z,40.40
2018-03-14T17:49:07.201Z,39.05
2018-03-14T17:49:56.266Z,76.90
2018-03-14T17:50:45.307Z,54.95
2018-03-14T17:51:34.488Z,155.50
2018-03-14T17:52:23.570Z,170.57
2018-03-14T17:53:12.631Z,120.45
2018-03-14T17:54:01.682Z,123.95
2018-03-14T17:54:50.742Z,101.62
2018-03-14T17:55:39.802Z,79.95
2018-03-14T17:56:28.886Z,73.20
2018-03-14T17:57:17.980Z,52.28
2018-03-14T17:58:07.033Z,53.30
2018-03-14T17:58:56.086Z,54.45
2018-03-14T17:59:45.138Z,59.72
2018-03-14T18:00:34.199Z,57.60
2018-03-14T18:01:23.263Z,53.45
2018-03-14T18:02:12.314Z,58.08
2018-03-14T18:03:01.732Z,73.82
2018-03-14T18:03:50.784Z,75.45
2018-03-14T18:04:39.827Z,74.87
2018-03-14T18:05:28.969Z,97.28
2018-03-14T18:06:18.052Z,94.13
2018-03-14T18:07:07.131Z,84.65
2018-03-14T18:07:56.190Z,91.25
2018-03-14T18:08:45.331Z,80.80
2018-03-14T18:09:34.400Z,77.47
2018-03-14T18:10:23.466Z,83.50
2018-03-14T18:11:12.574Z,93.78
2018-03-14T18:12:01.636Z,112.32
2018-03-14T18:12:50.683Z,95.55
2018-03-14T18:13:39.741Z,94.03
2018-03-14T18:14:28.818Z,77.85
2018-03-14T18:15:17.865Z,91.55
2018-03-14T18:16:07.069Z,65.15
2018-03-14T18:16:56.146Z,67.78
2018-03-14T18:17:45.207Z,73.15
2018-03-14T18:18:34.283Z,70.22
2018-03-14T18:19:23.343Z,64.97
2018-03-14T18:20:12.392Z,84.85
2018-03-14T18:21:01.437Z,82.12
2018-03-14T18:21:50.757Z,58.10
2018-03-14T18:22:39.797Z,40.12
2018-03-14T18:23:28.891Z,37.85
2018-03-14T18:24:17.948Z,32.40
2018-03-14T18:25:07.001Z,37.70
2018-03-14T18:25:56.131Z,46.88
2018-03-14T18:26:45.180Z,37.88
2018-03-14T18:27:34.282Z,32.72
2018-03-14T18:28:23.368Z,35.85
2018-03-14T18:29:12.437Z,30.95
2018-03-14T18:31:28.140Z,33.97
2018-03-14T18:32:18.958Z,34.17
2018-03-14T18:33:08.125Z,25.88
2018-03-14T18:33:57.298Z,29.52
2018-03-14T18:34:46.443Z,34.55
2018-03-14T18:35:35.493Z,28.12
2018-03-14T18:36:24.897Z,27.77
2018-03-14T18:37:14.076Z,19.90
2018-03-14T18:38:03.233Z,18.10
2018-03-14T18:38:52.312Z,10.90
2018-03-14T18:39:41.732Z,11.88
2018-03-14T18:40:30.778Z,16.62
2018-03-14T18:41:20.046Z,18.77
2018-03-14T18:42:09.260Z,23.38
2018-03-14T18:42:59.414Z,21.85
2018-03-14T18:43:48.461Z,22.00
2018-03-14T18:44:37.532Z,28.90
2018-03-14T18:45:26.585Z,29.02
2018-03-14T18:46:15.639Z,18.85
2018-03-14T18:47:04.731Z,30.17
2018-03-14T18:47:53.802Z,27.50
2018-03-14T18:48:42.903Z,23.70
2018-03-14T18:49:31.965Z,23.50
2018-03-14T18:50:21.029Z,39.75
2018-03-14T18:51:10.073Z,44.17
2018-03-14T18:51:59.119Z,47.13
2018-03-14T18:52:48.158Z,57.10
2018-03-14T18:53:37.214Z,43.78
2018-03-14T18:54:26.323Z,57.47
2018-03-14T18:55:15.786Z,59.88
2018-03-14T18:56:04.895Z,59.60
2018-03-14T18:56:53.949Z,57.85
2018-03-14T18:57:42.996Z,65.22
2018-03-14T18:58:32.320Z,54.97
2018-03-14T18:59:21.582Z,49.45
2018-03-14T19:00:10.654Z,51.50
2018-03-14T19:00:59.815Z,55.10
2018-03-14T19:01:48.874Z,66.62
2018-03-14T19:02:37.943Z,54.75
2018-03-14T19:03:27.004Z,48.15
2018-03-14T19:04:16.075Z,46.95
2018-03-14T19:05:05.220Z,50.10
2018-03-14T19:05:54.417Z,36.28
2018-03-14T19:06:43.492Z,33.97
2018-03-14T19:07:32.569Z,28.00
2018-03-14T19:08:21.671Z,31.58
2018-03-14T19:09:10.762Z,31.92
2018-03-14T19:09:59.853Z,27.50
2018-03-14T19:10:48.960Z,41.85
2018-03-14T19:11:38.014Z,41.45
2018-03-14T19:12:27.088Z,104.78
2018-03-14T19:13:16.138Z,47.35
2018-03-14T19:14:05.204Z,62.40
2018-03-14T19:14:54.263Z,71.62
2018-03-14T19:15:43.798Z,76.65
2018-03-14T19:16:32.859Z,81.12
2018-03-14T19:17:21.904Z,96.90
2018-03-14T19:18:10.948Z,113.95